Active — NRTF — position and weather

sailwx.info

Track history (hours):
 
Tides and Currents Weather Stations Pressure Air Temp Water Temp Dewpoint Dewpoint Depression Visibility Wind Speed Wind Dir Waves Ship Positions

Active

Last reported at 2017-Nov-01 01:39 UTC. Time now 2017-Nov-18 10:14 UTC.
Position N 48°08' W 123°25'.
Warning: this ship's position is 17 days out of date.

Type: SAR. MMSI: 367269000.

Date/timePositionNaut miles runAvg speedWind from/ knotsBaromVisibWave heightAir tempDewpointWater temp
2017-Nov-01 01:39N 48°08' W 123°25'0 0.6
2017-Nov-01 01:30N 48°08' W 123°25'1 2.6
2017-Nov-01 01:01N 48°10' W 123°25'713.1
2017-Nov-01 00:30N 48°13' W 123°33'714.7
2017-Nov-01 00:00N 48°13' W 123°44'814.9
2017-Oct-31 23:29N 48°13' W 123°56'815.3
2017-Oct-31 22:59N 48°17' W 124°06'815.8
2017-Oct-31 22:30N 48°20' W 124°16'815.7
2017-Oct-31 22:00N 48°23' W 124°27'816.2
2017-Oct-31 21:30N 48°27' W 124°38'713.2
2017-Oct-31 21:00N 48°27' W 124°48'1017.0
2017-Oct-31 20:26N 48°18' W 124°53'7615.8
2017-Oct-31 15:37N 47°02' W 124°53'216.0
2017-Oct-31 15:30N 46°60' W 124°53'816.1
2017-Oct-31 15:01N 46°52' W 124°50'815.9
2017-Oct-31 14:30N 46°44' W 124°49'816.1
2017-Oct-31 14:01N 46°36' W 124°47'816.0
2017-Oct-31 13:30N 46°28' W 124°46'815.7
2017-Oct-31 13:01N 46°21' W 124°44'815.5
2017-Oct-31 12:30N 46°13' W 124°41'713.4
2017-Oct-31 12:01N 46°06' W 124°42'815.8
2017-Oct-31 11:30N 45°58' W 124°42'816.0
2017-Oct-31 11:00N 45°51' W 124°40'815.7
2017-Oct-31 10:30N 45°43' W 124°37'815.7
2017-Oct-31 10:00N 45°36' W 124°33'815.8
2017-Oct-31 09:30N 45°28' W 124°31'815.9
2017-Oct-31 09:00N 45°20' W 124°29'815.8
2017-Oct-31 08:30N 45°12' W 124°27'815.6
2017-Oct-31 08:00N 45°05' W 124°25'816.0
2017-Oct-31 07:30N 44°57' W 124°21'37714.3
2017-Oct-30 05:05N 38°41' W 123°51'314.0
2017-Oct-30 04:54N 38°38' W 123°51'714.6
2017-Oct-30 04:23N 38°31' W 123°53'614.4
2017-Oct-30 04:00N 38°26' W 123°56'713.4
2017-Oct-30 03:30N 38°20' W 123°52'713.8
2017-Oct-30 03:00N 38°14' W 123°47'713.9
2017-Oct-30 02:31N 38°08' W 123°43'714.2
2017-Oct-30 02:01N 38°02' W 123°39'713.9
2017-Oct-30 01:30N 37°56' W 123°34'714.2
2017-Oct-30 01:00N 37°50' W 123°30'814.8
2017-Oct-30 00:26N 37°42' W 123°24'715.2
2017-Oct-29 23:58N 37°36' W 123°20'1214.9
2017-Oct-29 23:11N 37°26' W 123°12'314.7
2017-Oct-29 22:58N 37°23' W 123°11'714.6
2017-Oct-29 22:30N 37°17' W 123°07'714.8
2017-Oct-29 22:00N 37°11' W 123°02'815.1
2017-Oct-29 21:30N 37°05' W 122°57'815.1
2017-Oct-29 21:00N 36°58' W 122°52'714.9
2017-Oct-29 20:30N 36°52' W 122°47'715.0
2017-Oct-29 20:00N 36°45' W 122°44'714.8
2017-Oct-29 19:30N 36°38' W 122°40'714.8
2017-Oct-29 19:00N 36°31' W 122°36'714.8
2017-Oct-29 18:30N 36°24' W 122°33'815.2
2017-Oct-29 18:00N 36°17' W 122°29'815.5
2017-Oct-29 17:30N 36°10' W 122°25'815.4
2017-Oct-29 17:00N 36°04' W 122°21'815.5
2017-Oct-29 16:30N 35°57' W 122°15'2512.4
2017-Oct-29 14:29N 35°35' W 122°01'1015.1
2017-Oct-29 13:51N 35°26' W 121°55'715.1
2017-Oct-29 13:22N 35°20' W 121°51'615.0
2017-Oct-29 12:58N 35°15' W 121°48'715.0
2017-Oct-29 12:30N 35°09' W 121°44'815.1
2017-Oct-29 12:00N 35°02' W 121°40'815.3
2017-Oct-29 11:30N 34°55' W 121°35'815.3
2017-Oct-29 11:00N 34°48' W 121°31'815.7
2017-Oct-29 10:30N 34°41' W 121°26'815.4
2017-Oct-29 10:00N 34°35' W 121°22'815.2
2017-Oct-29 09:30N 34°28' W 121°18'815.4
2017-Oct-29 09:00N 34°21' W 121°13'715.0
2017-Oct-29 08:30N 34°16' W 121°06'815.0
2017-Oct-29 08:00N 34°11' W 120°59'715.0
2017-Oct-29 07:30N 34°07' W 120°52'714.9
2017-Oct-29 07:00N 34°02' W 120°45'814.9
2017-Oct-29 06:29N 33°57' W 120°38'714.5
2017-Oct-29 06:00N 33°53' W 120°32'714.8
2017-Oct-29 05:30N 33°48' W 120°25'815.1
2017-Oct-29 05:00N 33°44' W 120°17'815.1
2017-Oct-29 04:29N 33°41' W 120°08'714.7
2017-Oct-29 04:00N 33°38' W 120°00'13915.4
2017-Oct-28 19:00N 32°42' W 117°29'  
2017-Oct-25 15:26N 32°37' W 117°23'511.4
2017-Oct-25 15:00N 32°37' W 117°29'2 4.3
2017-Oct-25 14:26N 32°37' W 117°26'3 6.8
2017-Oct-25 14:00N 32°37' W 117°30'4 7.8
2017-Oct-25 13:30N 32°35' W 117°34'611.2
2017-Oct-25 13:00N 32°29' W 117°35'  
Track history (hours):
 
Tides and Currents Weather Stations Pressure Air Temp Water Temp Dewpoint Dewpoint Depression Visibility Wind Speed Wind Dir Waves Ship Positions

Active

Last reported at 2017-Nov-01 01:39 UTC. Time now 2017-Nov-18 10:14 UTC.
Position N 48°08' W 123°25'.
Warning: this ship's position is 17 days out of date.

Type: SAR. MMSI: 367269000.

Date/timePositionNaut miles runAvg speedWind from/ knotsBaromVisibWave heightAir tempDewpointWater temp
2017-Nov-01 01:39N 48°08' W 123°25'0 0.6
2017-Nov-01 01:30N 48°08' W 123°25'1 2.6
2017-Nov-01 01:01N 48°10' W 123°25'713.1
2017-Nov-01 00:30N 48°13' W 123°33'714.7
2017-Nov-01 00:00N 48°13' W 123°44'814.9
2017-Oct-31 23:29N 48°13' W 123°56'815.3
2017-Oct-31 22:59N 48°17' W 124°06'815.8
2017-Oct-31 22:30N 48°20' W 124°16'815.7
2017-Oct-31 22:00N 48°23' W 124°27'816.2
2017-Oct-31 21:30N 48°27' W 124°38'713.2
2017-Oct-31 21:00N 48°27' W 124°48'1017.0
2017-Oct-31 20:26N 48°18' W 124°53'7615.8
2017-Oct-31 15:37N 47°02' W 124°53'216.0
2017-Oct-31 15:30N 46°60' W 124°53'816.1
2017-Oct-31 15:01N 46°52' W 124°50'815.9
2017-Oct-31 14:30N 46°44' W 124°49'816.1
2017-Oct-31 14:01N 46°36' W 124°47'816.0
2017-Oct-31 13:30N 46°28' W 124°46'815.7
2017-Oct-31 13:01N 46°21' W 124°44'815.5
2017-Oct-31 12:30N 46°13' W 124°41'713.4
2017-Oct-31 12:01N 46°06' W 124°42'815.8
2017-Oct-31 11:30N 45°58' W 124°42'816.0
2017-Oct-31 11:00N 45°51' W 124°40'815.7
2017-Oct-31 10:30N 45°43' W 124°37'815.7
2017-Oct-31 10:00N 45°36' W 124°33'815.8
2017-Oct-31 09:30N 45°28' W 124°31'815.9
2017-Oct-31 09:00N 45°20' W 124°29'815.8
2017-Oct-31 08:30N 45°12' W 124°27'815.6
2017-Oct-31 08:00N 45°05' W 124°25'816.0
2017-Oct-31 07:30N 44°57' W 124°21'37714.3
2017-Oct-30 05:05N 38°41' W 123°51'314.0
2017-Oct-30 04:54N 38°38' W 123°51'714.6
2017-Oct-30 04:23N 38°31' W 123°53'614.4
2017-Oct-30 04:00N 38°26' W 123°56'713.4
2017-Oct-30 03:30N 38°20' W 123°52'713.8
2017-Oct-30 03:00N 38°14' W 123°47'713.9
2017-Oct-30 02:31N 38°08' W 123°43'714.2
2017-Oct-30 02:01N 38°02' W 123°39'713.9
2017-Oct-30 01:30N 37°56' W 123°34'714.2
2017-Oct-30 01:00N 37°50' W 123°30'814.8
2017-Oct-30 00:26N 37°42' W 123°24'715.2
2017-Oct-29 23:58N 37°36' W 123°20'1214.9
2017-Oct-29 23:11N 37°26' W 123°12'314.7
2017-Oct-29 22:58N 37°23' W 123°11'714.6
2017-Oct-29 22:30N 37°17' W 123°07'714.8
2017-Oct-29 22:00N 37°11' W 123°02'815.1
2017-Oct-29 21:30N 37°05' W 122°57'815.1
2017-Oct-29 21:00N 36°58' W 122°52'714.9
2017-Oct-29 20:30N 36°52' W 122°47'715.0
2017-Oct-29 20:00N 36°45' W 122°44'714.8
2017-Oct-29 19:30N 36°38' W 122°40'714.8
2017-Oct-29 19:00N 36°31' W 122°36'714.8
2017-Oct-29 18:30N 36°24' W 122°33'815.2
2017-Oct-29 18:00N 36°17' W 122°29'815.5
2017-Oct-29 17:30N 36°10' W 122°25'815.4
2017-Oct-29 17:00N 36°04' W 122°21'815.5
2017-Oct-29 16:30N 35°57' W 122°15'2512.4
2017-Oct-29 14:29N 35°35' W 122°01'1015.1
2017-Oct-29 13:51N 35°26' W 121°55'715.1
2017-Oct-29 13:22N 35°20' W 121°51'615.0
2017-Oct-29 12:58N 35°15' W 121°48'715.0
2017-Oct-29 12:30N 35°09' W 121°44'815.1
2017-Oct-29 12:00N 35°02' W 121°40'815.3
2017-Oct-29 11:30N 34°55' W 121°35'815.3
2017-Oct-29 11:00N 34°48' W 121°31'815.7
2017-Oct-29 10:30N 34°41' W 121°26'815.4
2017-Oct-29 10:00N 34°35' W 121°22'815.2
2017-Oct-29 09:30N 34°28' W 121°18'815.4
2017-Oct-29 09:00N 34°21' W 121°13'715.0
2017-Oct-29 08:30N 34°16' W 121°06'815.0
2017-Oct-29 08:00N 34°11' W 120°59'715.0
2017-Oct-29 07:30N 34°07' W 120°52'714.9
2017-Oct-29 07:00N 34°02' W 120°45'814.9
2017-Oct-29 06:29N 33°57' W 120°38'714.5
2017-Oct-29 06:00N 33°53' W 120°32'714.8
2017-Oct-29 05:30N 33°48' W 120°25'815.1
2017-Oct-29 05:00N 33°44' W 120°17'815.1
2017-Oct-29 04:29N 33°41' W 120°08'714.7
2017-Oct-29 04:00N 33°38' W 120°00'13915.4
2017-Oct-28 19:00N 32°42' W 117°29'  
2017-Oct-25 15:26N 32°37' W 117°23'511.4
2017-Oct-25 15:00N 32°37' W 117°29'2 4.3
2017-Oct-25 14:26N 32°37' W 117°26'3 6.8
2017-Oct-25 14:00N 32°37' W 117°30'4 7.8
2017-Oct-25 13:30N 32°35' W 117°34'611.2
2017-Oct-25 13:00N 32°29' W 117°35'  

Dump ship's entire track history